Time;durP1;ratioP1;P1;durP2;ratioP2;P2;SDS_P1;SDS_P2;PMS_P1;PMS_P2;Temp;Humidity;BMP_temperature;BMP_pressure;BME280_temperature;BME280_humidity;BME280_pressure;Samples;Min_cycle;Max_cycle;Signal;HPM_P1;HPM_P2
2023/05/10 00:02:12;;;;;;;;;;;;;;;-140.72;100.00;52983.41;5092304;28;20009;-69
2023/05/10 00:04:37;;;;;;;;;;;;;;;-140.72;100.00;52967.16;5078205;28;20286;-70
2023/05/10 00:07:02;;;;;;;;;;;;;;;-140.72;100.00;52979.34;5094346;28;19920;-70
2023/05/10 00:09:28;;;;;;;;;;;;;;;-140.72;100.00;52944.84;5095738;28;20019;-69
2023/05/10 00:11:53;;;;;;;;;;;;;;;-140.72;100.00;52971.22;5086123;28;19920;-69
2023/05/10 00:14:18;;;;;;;;;;;;;;;-140.72;100.00;52979.34;5101078;28;19920;-70
2023/05/10 00:16:44;;;;;;;;;;;;;;;-140.72;100.00;52973.25;5090023;28;20358;-69
2023/05/10 00:19:09;;;;;;;;;;;;;;;-140.72;100.00;52969.19;5087871;28;19926;-69
2023/05/10 00:21:34;;;;;;;;;;;;;;;-140.72;100.00;52991.53;5094964;28;20071;-69
2023/05/10 00:24:00;;;;;;;;;;;;;;;-140.72;100.00;52975.28;5091031;28;19920;-69
2023/05/10 00:26:25;;;;;;;;;;;;;;;-140.72;100.00;52967.16;5088451;28;19921;-69
2023/05/10 00:28:50;;;;;;;;;;;;;;;-140.72;100.00;52950.94;5096498;28;20282;-69
2023/05/10 00:31:15;;;;;;;;;;;;;;;-140.72;100.00;52983.41;5094162;28;19924;-69
2023/05/10 00:33:41;;;;;;;;;;;;;;;-140.72;100.00;52985.44;5099368;28;20040;-69
2023/05/10 00:36:07;;;;;;;;;;;;;;;-140.72;100.00;52993.56;5096551;28;19980;-69
2023/05/10 00:38:32;;;;;;;;;;;;;;;-140.72;100.00;52944.84;5086503;28;19916;-69
2023/05/10 00:40:58;;;;;;;;;;;;;;;-140.72;100.00;52993.56;5084902;28;20016;-69
2023/05/10 00:43:23;;;;;;;;;;;;;;;-140.72;100.00;52948.91;5095726;28;19920;-69
2023/05/10 00:45:48;;;;;;;;;;;;;;;-140.72;100.00;52979.34;5092963;28;19920;-70
2023/05/10 00:48:13;;;;;;;;;;;;;;;-140.72;100.00;52983.41;5094728;28;19920;-69
2023/05/10 00:50:39;;;;;;;;;;;;;;;-140.72;100.00;52959.06;5092386;28;20015;-69
2023/05/10 00:53:05;;;;;;;;;;;;;;;-140.72;100.00;52969.19;5095886;28;19938;-69
2023/05/10 00:55:31;;;;;;;;;;;;;;;-140.72;100.00;52924.56;5100186;28;20010;-69
2023/05/10 00:57:56;;;;;;;;;;;;;;;-140.72;100.00;53007.75;5083304;28;20007;-69
2023/05/10 01:00:21;;;;;;;;;;;;;;;-140.72;100.00;52959.06;5090612;28;20324;-70
2023/05/10 01:02:46;;;;;;;;;;;;;;;-140.72;100.00;52946.88;5095177;28;20259;-70
2023/05/10 01:05:12;;;;;;;;;;;;;;;-140.72;100.00;52963.13;5095362;28;20359;-70
2023/05/10 01:07:38;;;;;;;;;;;;;;;-140.72;100.00;52975.28;5094117;28;19970;-70
2023/05/10 01:10:03;;;;;;;;;;;;;;;-140.72;100.00;52952.97;5085946;28;20391;-69
2023/05/10 01:12:29;;;;;;;;;;;;;;;-140.72;100.00;52965.16;5082897;28;19924;-70
2023/05/10 01:14:54;;;;;;;;;;;;;;;-140.72;100.00;52965.16;5090243;28;19928;-70
2023/05/10 01:17:21;;;;;;;;;;;;;;;-140.72;100.00;52938.75;5095820;28;19976;-70
2023/05/10 01:19:46;;;;;;;;;;;;;;;-140.72;100.00;52942.81;5093492;28;20302;-70
2023/05/10 01:22:11;;;;;;;;;;;;;;;-140.72;100.00;52985.44;5084143;28;19927;-70
2023/05/10 01:24:50;;;;;;;;;;;;;;;-140.72;100.00;52955.00;5094656;28;20011;-70
2023/05/10 01:27:19;;;;;;;;;;;;;;;-140.72;100.00;52969.19;5089861;28;20007;-70
2023/05/10 01:30:03;;;;;;;;;;;;;;;-140.72;100.00;52971.22;5082003;28;19966;-69
2023/05/10 01:32:34;;;;;;;;;;;;;;;-140.72;100.00;52952.97;5082667;28;19941;-69
2023/05/10 01:35:02;;;;;;;;;;;;;;;-140.72;100.00;52973.25;5090009;28;19916;-69
2023/05/10 01:37:33;;;;;;;;;;;;;;;-140.72;100.00;52967.16;5104004;28;20294;-69
2023/05/10 01:40:14;;;;;;;;;;;;;;;-140.72;100.00;52920.50;5096938;28;19920;-69
2023/05/10 01:42:46;;;;;;;;;;;;;;;-140.72;100.00;52993.56;5088112;28;19916;-69
2023/05/10 01:45:19;;;;;;;;;;;;;;;-140.72;100.00;52934.69;5089736;28;20287;-69
2023/05/10 01:47:53;;;;;;;;;;;;;;;-140.72;100.00;52971.22;5096723;28;20255;-69
2023/05/10 01:50:21;;;;;;;;;;;;;;;-140.72;100.00;52999.66;5093476;28;19945;-69
2023/05/10 01:52:51;;;;;;;;;;;;;;;-140.72;100.00;52918.47;5080948;28;19931;-69
2023/05/10 01:55:20;;;;;;;;;;;;;;;-140.72;100.00;52946.88;5087247;28;20120;-69
2023/05/10 01:57:46;;;;;;;;;;;;;;;-140.72;100.00;52957.03;5094864;28;19924;-69
2023/05/10 02:00:12;;;;;;;;;;;;;;;-140.72;100.00;52942.81;5085206;28;19967;-69
2023/05/10 02:02:38;;;;;;;;;;;;;;;-140.72;100.00;52934.69;5089144;28;20270;-69
2023/05/10 02:05:05;;;;;;;;;;;;;;;-140.72;100.00;52963.13;5085820;28;19921;-69
2023/05/10 02:07:31;;;;;;;;;;;;;;;-140.72;100.00;52946.88;5086408;28;19916;-69
2023/05/10 02:09:57;;;;;;;;;;;;;;;-140.72;100.00;52934.69;5082155;28;19923;-70
2023/05/10 02:12:23;;;;;;;;;;;;;;;-140.72;100.00;52975.28;5093910;28;19919;-69
2023/05/10 02:14:50;;;;;;;;;;;;;;;-140.72;100.00;52942.81;5084781;28;20297;-69
2023/05/10 02:17:16;;;;;;;;;;;;;;;-140.72;100.00;52938.75;5092264;28;19919;-69
2023/05/10 02:19:42;;;;;;;;;;;;;;;-140.72;100.00;52967.16;5085790;28;19920;-70
2023/05/10 02:22:08;;;;;;;;;;;;;;;-140.72;100.00;52924.56;5086397;28;20389;-70
2023/05/10 02:24:34;;;;;;;;;;;;;;;-140.72;100.00;52926.59;5097686;28;19920;-69
2023/05/10 02:27:00;;;;;;;;;;;;;;;-140.72;100.00;52938.75;5102638;28;19927;-69
2023/05/10 02:29:27;;;;;;;;;;;;;;;-140.72;100.00;52948.91;5107727;28;19976;-70
2023/05/10 02:31:53;;;;;;;;;;;;;;;-140.72;100.00;52942.81;5098946;28;20453;-69
2023/05/10 02:34:19;;;;;;;;;;;;;;;-140.72;100.00;52971.22;5111961;28;19916;-69
2023/05/10 02:36:45;;;;;;;;;;;;;;;-140.72;100.00;52932.66;5089786;28;19928;-69
2023/05/10 02:39:13;;;;;;;;;;;;;;;-140.72;100.00;52926.59;5098730;28;19973;-69
2023/05/10 02:41:40;;;;;;;;;;;;;;;-140.72;100.00;52928.63;5097878;28;19959;-70
2023/05/10 02:44:06;;;;;;;;;;;;;;;-140.72;100.00;52934.69;5103913;28;19969;-69
2023/05/10 02:46:31;;;;;;;;;;;;;;;-140.72;100.00;52942.81;5100378;28;19928;-69
2023/05/10 02:48:57;;;;;;;;;;;;;;;-140.72;100.00;52916.44;5095789;28;19965;-69
2023/05/10 02:51:25;;;;;;;;;;;;;;;-140.72;100.00;52886.00;5091152;28;20018;-69
2023/05/10 02:53:50;;;;;;;;;;;;;;;-140.72;100.00;52975.28;5088943;28;19928;-69
2023/05/10 02:56:28;;;;;;;;;;;;;;;-140.72;100.00;52902.22;5090831;28;19924;-69
2023/05/10 02:58:53;;;;;;;;;;;;;;;-140.72;100.00;52971.22;5095395;28;19967;-69
2023/05/10 03:01:19;;;;;;;;;;;;;;;-140.72;100.00;52946.88;5097037;28;20014;-69
2023/05/10 03:03:44;;;;;;;;;;;;;;;-140.72;100.00;52946.88;5093407;28;19919;-69
2023/05/10 03:06:09;;;;;;;;;;;;;;;-140.72;100.00;52946.88;5096166;27;20027;-69
2023/05/10 03:08:35;;;;;;;;;;;;;;;-140.72;100.00;52942.81;5098652;28;19923;-69
2023/05/10 03:11:16;;;;;;;;;;;;;;;-140.72;100.00;52955.00;5100283;28;19920;-69
2023/05/10 03:14:14;;;;;;;;;;;;;;;-140.72;100.00;52946.88;5097132;28;19920;-69
2023/05/10 03:16:59;;;;;;;;;;;;;;;-140.72;100.00;52926.59;5081993;28;19974;-69
2023/05/10 03:19:32;;;;;;;;;;;;;;;-140.72;100.00;52934.69;5098845;28;19921;-69
2023/05/10 03:21:59;;;;;;;;;;;;;;;-140.72;100.00;52950.94;5097400;28;19924;-69
2023/05/10 03:24:27;;;;;;;;;;;;;;;-140.72;100.00;52944.84;5094129;28;20298;-69
2023/05/10 03:26:54;;;;;;;;;;;;;;;-140.72;100.00;52946.88;5089524;28;19959;-69
2023/05/10 03:29:20;;;;;;;;;;;;;;;-140.72;100.00;52934.69;5094685;28;19923;-69
2023/05/10 03:31:45;;;;;;;;;;;;;;;-140.72;100.00;52950.94;5093611;28;19987;-69
2023/05/10 03:34:11;;;;;;;;;;;;;;;-140.72;100.00;52963.13;5098765;28;20304;-69
2023/05/10 03:36:36;;;;;;;;;;;;;;;-140.72;100.00;52930.66;5091349;28;20040;-69
2023/05/10 03:39:02;;;;;;;;;;;;;;;-140.72;100.00;52957.03;5087838;28;19969;-69
2023/05/10 03:41:27;;;;;;;;;;;;;;;-140.72;100.00;52920.50;5101069;28;19974;-69
2023/05/10 03:43:52;;;;;;;;;;;;;;;-140.72;100.00;52924.56;5091889;28;20062;-69
2023/05/10 03:46:17;;;;;;;;;;;;;;;-140.72;100.00;52959.06;5089190;28;19931;-69
2023/05/10 03:48:43;;;;;;;;;;;;;;;-140.72;100.00;52955.00;5095150;28;19927;-69
2023/05/10 03:51:08;;;;;;;;;;;;;;;-140.72;100.00;52942.81;5084219;28;19921;-70
2023/05/10 03:53:33;;;;;;;;;;;;;;;-140.72;100.00;52934.69;5087352;28;19920;-70
2023/05/10 03:55:58;;;;;;;;;;;;;;;-140.72;100.00;52948.91;5085621;28;20380;-69
2023/05/10 03:58:24;;;;;;;;;;;;;;;-140.72;100.00;52957.03;5092882;28;20014;-69
2023/05/10 04:00:49;;;;;;;;;;;;;;;-140.72;100.00;52971.22;5102148;28;19968;-69
2023/05/10 04:03:14;;;;;;;;;;;;;;;-140.72;100.00;52950.94;5089802;28;19946;-69
2023/05/10 04:05:39;;;;;;;;;;;;;;;-140.72;100.00;52922.53;5091808;28;20353;-69
2023/05/10 04:08:05;;;;;;;;;;;;;;;-140.72;100.00;52946.88;5087148;28;19920;-69
2023/05/10 04:10:30;;;;;;;;;;;;;;;-140.72;100.00;52906.28;5090219;28;19961;-69
2023/05/10 04:12:55;;;;;;;;;;;;;;;-140.72;100.00;52918.47;5091086;28;19924;-69
2023/05/10 04:15:21;;;;;;;;;;;;;;;-140.72;100.00;52928.63;5092499;28;19920;-69
2023/05/10 04:17:46;;;;;;;;;;;;;;;-140.72;100.00;52957.03;5087007;28;19924;-69
2023/05/10 04:20:11;;;;;;;;;;;;;;;-140.72;100.00;52955.00;5094987;28;19924;-70
2023/05/10 04:22:36;;;;;;;;;;;;;;;-140.72;100.00;52914.41;5093398;28;19924;-69
2023/05/10 04:25:02;;;;;;;;;;;;;;;-140.72;100.00;52928.63;5089286;28;20005;-69
2023/05/10 04:27:27;;;;;;;;;;;;;;;-140.72;100.00;52965.16;5098530;28;19966;-69
2023/05/10 04:29:52;;;;;;;;;;;;;;;-140.72;100.00;52977.31;5088525;28;19916;-70
2023/05/10 04:32:18;;;;;;;;;;;;;;;-140.72;100.00;52950.94;5084914;28;19920;-69
2023/05/10 04:34:43;;;;;;;;;;;;;;;-140.72;100.00;52944.84;5101634;28;20018;-69
2023/05/10 04:37:09;;;;;;;;;;;;;;;-140.72;100.00;52922.53;5096633;28;20482;-71
2023/05/10 04:39:35;;;;;;;;;;;;;;;-140.72;100.00;52940.78;5101363;28;19922;-71
2023/05/10 04:42:00;;;;;;;;;;;;;;;-140.72;100.00;52942.81;5096397;28;19920;-71
2023/05/10 04:44:25;;;;;;;;;;;;;;;-140.72;100.00;52940.78;5098425;28;19970;-72
2023/05/10 04:46:51;;;;;;;;;;;;;;;-140.72;100.00;52950.94;5105037;28;19928;-72
2023/05/10 04:49:16;;;;;;;;;;;;;;;-140.72;100.00;52928.63;5097138;28;19999;-73
2023/05/10 04:51:41;;;;;;;;;;;;;;;-140.72;100.00;52934.69;5090432;28;19931;-75
2023/05/10 04:54:07;;;;;;;;;;;;;;;-140.72;100.00;52963.13;5091827;28;19924;-71
2023/05/10 04:56:32;;;;;;;;;;;;;;;-140.72;100.00;52894.13;5093763;28;19927;-70
2023/05/10 04:58:57;;;;;;;;;;;;;;;-140.72;100.00;52971.22;5092914;28;19930;-71
2023/05/10 05:01:22;;;;;;;;;;;;;;;-140.72;100.00;52967.16;5099482;28;20010;-71
2023/05/10 05:03:48;;;;;;;;;;;;;;;-140.72;100.00;52926.59;5098292;28;19998;-71
2023/05/10 05:06:13;;;;;;;;;;;;;;;-140.72;100.00;52989.50;5097040;28;19920;-71
2023/05/10 05:08:38;;;;;;;;;;;;;;;-140.72;100.00;52946.88;5101231;28;20037;-71
2023/05/10 05:11:04;;;;;;;;;;;;;;;-140.72;100.00;52938.75;5094923;28;19935;-71
2023/05/10 05:13:29;;;;;;;;;;;;;;;-140.72;100.00;52950.94;5087073;28;19920;-72
2023/05/10 05:15:54;;;;;;;;;;;;;;;-140.72;100.00;52950.94;5103510;28;20030;-71
2023/05/10 05:18:19;;;;;;;;;;;;;;;-140.72;100.00;52952.97;5099012;28;20015;-72
2023/05/10 05:20:44;;;;;;;;;;;;;;;-140.72;100.00;52934.69;5090745;28;20283;-70
2023/05/10 05:23:10;;;;;;;;;;;;;;;-140.72;100.00;52944.84;5094617;28;20423;-72
2023/05/10 05:25:36;;;;;;;;;;;;;;;-140.72;100.00;52946.88;5092351;28;19960;-72
2023/05/10 05:28:01;;;;;;;;;;;;;;;-140.72;100.00;52981.38;5100854;28;19998;-70
2023/05/10 05:30:26;;;;;;;;;;;;;;;-140.72;100.00;52975.28;5085457;28;19934;-71
2023/05/10 05:32:52;;;;;;;;;;;;;;;-140.72;100.00;52934.69;5082009;28;20033;-70
2023/05/10 05:35:17;;;;;;;;;;;;;;;-140.72;100.00;52918.47;5088177;28;20042;-71
2023/05/10 05:37:42;;;;;;;;;;;;;;;-140.72;100.00;52936.72;5096492;28;19927;-70
2023/05/10 05:40:08;;;;;;;;;;;;;;;-140.72;100.00;52932.66;5100946;28;19924;-71
2023/05/10 05:42:33;;;;;;;;;;;;;;;-140.72;100.00;52914.41;5100593;28;20381;-71
2023/05/10 05:44:58;;;;;;;;;;;;;;;-140.72;100.00;52892.09;5082542;28;19924;-72
2023/05/10 05:47:30;;;;;;;;;;;;;;;-140.72;100.00;52955.00;5100775;28;20003;-72
2023/05/10 05:49:56;;;;;;;;;;;;;;;-140.72;100.00;52940.78;5079943;28;19916;-71
2023/05/10 05:52:21;;;;;;;;;;;;;;;-140.72;100.00;52924.56;5100382;28;20079;-71
2023/05/10 05:54:46;;;;;;;;;;;;;;;-140.72;100.00;52973.25;5093893;28;20332;-71
2023/05/10 05:57:11;;;;;;;;;;;;;;;-140.72;100.00;52952.97;5101712;28;19927;-70
2023/05/10 05:59:41;;;;;;;;;;;;;;;-140.72;100.00;52969.19;5092131;28;19982;-74
2023/05/10 06:02:06;;;;;;;;;;;;;;;-140.72;100.00;52961.09;5088710;28;20386;-71
2023/05/10 06:04:32;;;;;;;;;;;;;;;-140.72;100.00;52930.66;5082270;28;19955;-73
2023/05/10 06:06:57;;;;;;;;;;;;;;;-140.72;100.00;52975.28;5092814;28;19962;-72
2023/05/10 06:09:24;;;;;;;;;;;;;;;-140.72;100.00;52932.66;5090951;28;20001;-72
2023/05/10 06:11:49;;;;;;;;;;;;;;;-140.72;100.00;52910.34;5085775;28;19931;-72
2023/05/10 06:14:15;;;;;;;;;;;;;;;-140.72;100.00;52910.34;5088242;28;19920;-72
2023/05/10 06:16:40;;;;;;;;;;;;;;;-140.72;100.00;52906.28;5087903;28;20274;-72
2023/05/10 06:19:07;;;;;;;;;;;;;;;-140.72;100.00;52916.44;5080301;28;19985;-73
2023/05/10 06:21:32;;;;;;;;;;;;;;;-140.72;100.00;52936.72;5093655;28;19927;-73
2023/05/10 06:23:57;;;;;;;;;;;;;;;-140.72;100.00;52912.38;5093076;28;19920;-73
2023/05/10 06:26:23;;;;;;;;;;;;;;;-140.72;100.00;52914.41;5089988;28;19934;-73
2023/05/10 06:28:48;;;;;;;;;;;;;;;-140.72;100.00;52894.13;5084568;28;19924;-72
2023/05/10 06:31:13;;;;;;;;;;;;;;;-140.72;100.00;52934.69;5088148;28;19943;-72
2023/05/10 06:33:39;;;;;;;;;;;;;;;-140.72;100.00;52918.47;5098249;28;19999;-72
2023/05/10 06:36:04;;;;;;;;;;;;;;;-140.72;100.00;52926.59;5084885;27;19916;-71
2023/05/10 06:38:29;;;;;;;;;;;;;;;-140.72;100.00;52942.81;5104977;28;19916;-72
2023/05/10 06:40:55;;;;;;;;;;;;;;;-140.72;100.00;52898.16;5097825;28;19916;-72
2023/05/10 06:43:20;;;;;;;;;;;;;;;-140.72;100.00;52906.28;5094588;28;19985;-73
2023/05/10 06:45:46;;;;;;;;;;;;;;;-140.72;100.00;52892.09;5101629;28;20018;-75
2023/05/10 06:48:11;;;;;;;;;;;;;;;-140.72;100.00;52914.41;5090283;28;19920;-73
2023/05/10 06:50:36;;;;;;;;;;;;;;;-140.72;100.00;52883.97;5084402;28;20432;-72
2023/05/10 06:53:01;;;;;;;;;;;;;;;-140.72;100.00;52871.78;5091081;28;20402;-71
2023/05/10 06:55:27;;;;;;;;;;;;;;;-140.72;100.00;52910.34;5095636;28;20308;-71
2023/05/10 06:57:52;;;;;;;;;;;;;;;-140.72;100.00;52861.66;5090226;28;20335;-71
2023/05/10 07:00:18;;;;;;;;;;;;;;;-140.72;100.00;52869.75;5090666;28;20016;-72
2023/05/10 07:02:44;;;;;;;;;;;;;;;-140.72;100.00;52894.13;5092425;28;19920;-72
2023/05/10 07:05:09;;;;;;;;;;;;;;;-140.72;100.00;52841.34;5098174;28;20308;-72
2023/05/10 07:07:34;;;;;;;;;;;;;;;-140.72;100.00;52871.78;5079225;28;19924;-72
2023/05/10 07:10:00;;;;;;;;;;;;;;;-140.72;100.00;52910.34;5112153;27;19916;-72
2023/05/10 07:12:25;;;;;;;;;;;;;;;-140.72;100.00;52900.19;5112802;27;20371;-72
2023/05/10 07:14:50;;;;;;;;;;;;;;;-140.72;100.00;52934.69;5099313;28;19920;-72
2023/05/10 07:17:15;;;;;;;;;;;;;;;-140.72;100.00;52906.28;5098738;28;20002;-73
2023/05/10 07:19:41;;;;;;;;;;;;;;;-140.72;100.00;52908.31;5087587;28;20396;-72
2023/05/10 07:22:06;;;;;;;;;;;;;;;-140.72;100.00;52910.34;5096596;28;20374;-72
2023/05/10 07:24:32;;;;;;;;;;;;;;;-140.72;100.00;52892.09;5085695;28;19920;-72
2023/05/10 07:26:57;;;;;;;;;;;;;;;-140.72;100.00;52924.56;5090887;28;20011;-74
2023/05/10 07:29:24;;;;;;;;;;;;;;;-140.72;100.00;52924.56;5096848;28;19931;-71
2023/05/10 07:31:49;;;;;;;;;;;;;;;-140.72;100.00;52918.47;5096339;28;19920;-71
2023/05/10 07:34:15;;;;;;;;;;;;;;;-140.72;100.00;52914.41;5102561;28;20335;-72
2023/05/10 07:36:40;;;;;;;;;;;;;;;-140.72;100.00;52900.19;5087972;28;19990;-72
2023/05/10 07:39:06;;;;;;;;;;;;;;;-140.72;100.00;52926.59;5097164;28;20482;-72
2023/05/10 07:41:32;;;;;;;;;;;;;;;-140.72;100.00;52904.25;5089365;28;19921;-72
2023/05/10 07:43:58;;;;;;;;;;;;;;;-140.72;100.00;52877.88;5099107;28;20011;-71
2023/05/10 07:46:23;;;;;;;;;;;;;;;-140.72;100.00;52861.66;5095051;28;19923;-72
2023/05/10 07:48:49;;;;;;;;;;;;;;;-140.72;100.00;52918.47;5091959;28;19920;-71
2023/05/10 07:51:14;;;;;;;;;;;;;;;-140.72;100.00;52890.06;5095514;28;19926;-72
2023/05/10 07:53:39;;;;;;;;;;;;;;;-140.72;100.00;52881.94;5093160;28;19928;-71
2023/05/10 07:56:44;;;;;;;;;;;;;;;-140.72;100.00;52918.47;5098506;28;19927;-71
2023/05/10 07:59:10;;;;;;;;;;;;;;;-140.72;100.00;52869.75;5066012;28;19975;-72
2023/05/10 08:01:35;;;;;;;;;;;;;;;-140.72;100.00;52894.13;5089930;28;19947;-72
2023/05/10 08:04:01;;;;;;;;;;;;;;;-140.72;100.00;52857.59;5103987;28;19927;-72
2023/05/10 08:06:27;;;;;;;;;;;;;;;-140.72;100.00;52910.34;5100931;28;19924;-72
2023/05/10 08:08:53;;;;;;;;;;;;;;;-140.72;100.00;52924.56;5100812;28;20539;-72
2023/05/10 08:11:22;;;;;;;;;;;;;;;-140.72;100.00;52871.78;5099769;28;19921;-71
2023/05/10 08:13:48;;;;;;;;;;;;;;;-140.72;100.00;52922.53;5094011;28;20011;-72
2023/05/10 08:16:13;;;;;;;;;;;;;;;-140.72;100.00;52865.69;5097071;28;19927;-71
2023/05/10 08:18:39;;;;;;;;;;;;;;;-140.72;100.00;52869.75;5091888;28;19920;-72
2023/05/10 08:21:04;;;;;;;;;;;;;;;-140.72;100.00;52888.03;5104767;28;19924;-71
2023/05/10 08:23:30;;;;;;;;;;;;;;;-140.72;100.00;52888.03;5099946;28;20072;-73
2023/05/10 08:25:55;;;;;;;;;;;;;;;-140.72;100.00;52881.94;5098747;28;19927;-72
2023/05/10 08:28:21;;;;;;;;;;;;;;;-140.72;100.00;52910.34;5095543;28;19923;-72
2023/05/10 08:30:46;;;;;;;;;;;;;;;-140.72;100.00;52918.47;5088502;28;19921;-72
2023/05/10 08:33:12;;;;;;;;;;;;;;;-140.72;100.00;52892.09;5091242;28;19941;-72
2023/05/10 08:35:37;;;;;;;;;;;;;;;-140.72;100.00;52926.59;5094806;28;20392;-72
2023/05/10 08:38:02;;;;;;;;;;;;;;;-140.72;100.00;52863.66;5095998;28;20341;-72
2023/05/10 08:40:27;;;;;;;;;;;;;;;-140.72;100.00;52908.31;5095199;28;19961;-72
2023/05/10 08:43:00;;;;;;;;;;;;;;;-140.72;100.00;52861.66;5093517;28;19960;-72
2023/05/10 08:45:27;;;;;;;;;;;;;;;-140.72;100.00;52916.44;5102395;28;19924;-72
2023/05/10 08:47:53;;;;;;;;;;;;;;;-140.72;100.00;52875.84;5095185;28;19923;-72
2023/05/10 08:50:21;;;;;;;;;;;;;;;-140.72;100.00;52825.13;5087991;28;19920;-72
2023/05/10 08:52:48;;;;;;;;;;;;;;;-140.72;100.00;52865.69;5087650;28;19924;-76
2023/05/10 08:55:13;;;;;;;;;;;;;;;-140.72;100.00;52861.66;5094815;28;19920;-72
2023/05/10 08:57:39;;;;;;;;;;;;;;;-140.72;100.00;52845.41;5090990;28;19920;-70
2023/05/10 09:00:05;;;;;;;;;;;;;;;-140.72;100.00;52837.28;5100288;28;20354;-71
2023/05/10 09:02:31;;;;;;;;;;;;;;;-140.72;100.00;52859.63;5096165;28;19920;-72
2023/05/10 09:04:56;;;;;;;;;;;;;;;-140.72;100.00;52817.00;5084702;28;20492;-72
2023/05/10 09:07:21;;;;;;;;;;;;;;;-140.72;100.00;52825.13;5087979;28;19917;-72
2023/05/10 09:09:47;;;;;;;;;;;;;;;-140.72;100.00;52754.09;5089997;28;19924;-72
2023/05/10 09:12:15;;;;;;;;;;;;;;;-140.72;100.00;52768.28;5083807;28;20382;-73
2023/05/10 09:14:40;;;;;;;;;;;;;;;-140.72;100.00;52776.41;5093314;28;20541;-72
2023/05/10 09:17:06;;;;;;;;;;;;;;;-140.72;100.00;52784.53;5082692;28;19924;-72
2023/05/10 09:19:31;;;;;;;;;;;;;;;-140.72;100.00;52758.16;5097488;28;19946;-72
2023/05/10 09:21:56;;;;;;;;;;;;;;;-140.72;100.00;52792.66;5089450;28;19916;-72
2023/05/10 09:24:25;;;;;;;;;;;;;;;-140.72;100.00;52782.50;5086947;28;20381;-72
2023/05/10 09:26:51;;;;;;;;;;;;;;;-140.72;100.00;52784.53;5096312;28;20067;-72
2023/05/10 09:29:16;;;;;;;;;;;;;;;-140.72;100.00;52817.00;5085820;28;19931;-72
2023/05/10 09:32:00;;;;;;;;;;;;;;;-140.72;100.00;52823.09;5105384;28;19916;-71
2023/05/10 09:34:29;;;;;;;;;;;;;;;-140.72;100.00;52837.28;5094064;28;19924;-72
2023/05/10 09:36:56;;;;;;;;;;;;;;;-140.72;100.00;52827.16;5080389;28;19940;-71
2023/05/10 09:39:35;;;;;;;;;;;;;;;-140.72;100.00;52817.00;5095179;28;19920;-71
2023/05/10 09:42:03;;;;;;;;;;;;;;;-140.72;100.00;52851.50;5106155;28;19924;-71
2023/05/10 09:44:29;;;;;;;;;;;;;;;-140.72;100.00;52817.00;5088738;28;19963;-72
2023/05/10 09:46:54;;;;;;;;;;;;;;;-140.72;100.00;52853.53;5089677;28;19924;-73
2023/05/10 09:49:20;;;;;;;;;;;;;;;-140.72;100.00;52851.50;5091102;28;19928;-75
2023/05/10 09:51:46;;;;;;;;;;;;;;;-140.72;100.00;52865.69;5092811;28;19920;-73
2023/05/10 09:54:12;;;;;;;;;;;;;;;-140.72;100.00;52817.00;5092839;28;19924;-72
2023/05/10 09:56:40;;;;;;;;;;;;;;;-140.72;100.00;52881.94;5091340;28;19943;-71
2023/05/10 09:59:05;;;;;;;;;;;;;;;-140.72;100.00;52823.09;5087581;28;19978;-74
2023/05/10 10:01:31;;;;;;;;;;;;;;;-140.72;100.00;52810.91;5087630;28;20007;-75
2023/05/10 10:03:57;;;;;;;;;;;;;;;-140.72;100.00;52853.53;5088537;28;20387;-71
2023/05/10 10:06:23;;;;;;;;;;;;;;;-140.72;100.00;52857.59;5094633;28;19927;-71
2023/05/10 10:08:48;;;;;;;;;;;;;;;-140.72;100.00;52851.50;5087832;28;19924;-71
2023/05/10 10:11:13;;;;;;;;;;;;;;;-140.72;100.00;52861.66;5092377;28;19916;-71
2023/05/10 10:13:39;;;;;;;;;;;;;;;-140.72;100.00;52849.47;5087894;28;20349;-71
2023/05/10 10:16:04;;;;;;;;;;;;;;;-140.72;100.00;52825.13;5085899;28;20370;-71
2023/05/10 10:18:30;;;;;;;;;;;;;;;-140.72;100.00;52825.13;5082594;28;19920;-71
2023/05/10 10:20:56;;;;;;;;;;;;;;;-140.72;100.00;52823.09;5087508;28;19924;-71
2023/05/10 10:23:21;;;;;;;;;;;;;;;-140.72;100.00;52819.03;5081844;28;19920;-72
2023/05/10 10:25:48;;;;;;;;;;;;;;;-140.72;100.00;52819.03;5086935;28;19929;-71
2023/05/10 10:28:32;;;;;;;;;;;;;;;-140.72;100.00;52819.03;5075882;28;19921;-72
2023/05/10 10:31:01;;;;;;;;;;;;;;;-140.72;100.00;52857.59;5093592;28;19934;-72
2023/05/10 10:33:47;;;;;;;;;;;;;;;-140.72;100.00;52823.09;5100261;28;20131;-73
2023/05/10 10:36:12;;;;;;;;;;;;;;;-140.72;100.00;52792.66;5083756;28;19920;-72
2023/05/10 10:38:47;;;;;;;;;;;;;;;-140.72;100.00;52788.59;5090373;28;19931;-72
2023/05/10 10:41:29;;;;;;;;;;;;;;;-140.72;100.00;52821.06;5090071;28;20390;-71
2023/05/10 10:44:13;;;;;;;;;;;;;;;-140.72;100.00;52798.72;5094768;28;20111;-70
2023/05/10 10:46:58;;;;;;;;;;;;;;;-140.72;100.00;52810.91;5084551;28;19989;-77
2023/05/10 10:49:23;;;;;;;;;;;;;;;-140.72;100.00;52794.69;5116798;27;19924;-78
2023/05/10 10:52:07;;;;;;;;;;;;;;;-140.72;100.00;52786.56;5090197;28;19931;-76
2023/05/10 10:54:35;;;;;;;;;;;;;;;-140.72;100.00;52780.47;5099891;28;20007;-77
2023/05/10 10:57:13;;;;;;;;;;;;;;;-140.72;100.00;52770.31;5085547;28;19999;-74
2023/05/10 10:59:45;;;;;;;;;;;;;;;-140.72;100.00;52739.88;5088299;28;19981;-76
2023/05/10 11:02:10;;;;;;;;;;;;;;;-140.72;100.00;52776.41;5087940;28;19928;-76
2023/05/10 11:04:46;;;;;;;;;;;;;;;-140.72;100.00;52750.03;5090228;28;19920;-76
2023/05/10 11:07:17;;;;;;;;;;;;;;;-140.72;100.00;52800.75;5086419;28;19920;-79
2023/05/10 11:09:43;;;;;;;;;;;;;;;-140.72;100.00;52800.75;5087931;28;19924;-77
2023/05/10 11:12:08;;;;;;;;;;;;;;;-140.72;100.00;52817.00;5092479;28;19927;-77
2023/05/10 11:14:34;;;;;;;;;;;;;;;-140.72;100.00;52784.53;5100227;28;19935;-77
2023/05/10 11:17:00;;;;;;;;;;;;;;;-140.72;100.00;52764.25;5095127;28;20046;-75
2023/05/10 11:19:27;;;;;;;;;;;;;;;-140.72;100.00;52774.38;5107795;27;19927;-73
2023/05/10 11:22:04;;;;;;;;;;;;;;;-140.72;100.00;52782.50;5100476;28;19922;-75
2023/05/10 11:24:30;;;;;;;;;;;;;;;-140.72;100.00;52825.13;5094373;28;19923;-74
2023/05/10 11:26:56;;;;;;;;;;;;;;;-140.72;100.00;52796.72;5089007;28;19920;-75
2023/05/10 11:29:21;;;;;;;;;;;;;;;-140.72;100.00;52827.16;5097660;27;20031;-74
2023/05/10 11:31:47;;;;;;;;;;;;;;;-140.72;100.00;52823.09;5090165;27;19933;-75
2023/05/10 11:34:22;;;;;;;;;;;;;;;-140.72;100.00;52845.41;5091930;28;20017;-76
2023/05/10 11:36:50;;;;;;;;;;;;;;;-140.72;100.00;52800.75;5107582;27;19927;-72
2023/05/10 11:39:16;;;;;;;;;;;;;;;-140.72;100.00;52778.44;5097342;28;20282;-72
2023/05/10 11:41:41;;;;;;;;;;;;;;;-140.72;100.00;52796.72;5096956;27;19991;-72
2023/05/10 11:44:08;;;;;;;;;;;;;;;-140.72;100.00;52796.72;5099921;28;20018;-71
2023/05/10 11:46:34;;;;;;;;;;;;;;;-140.72;100.00;52806.84;5090323;28;19920;-70
2023/05/10 11:49:06;;;;;;;;;;;;;;;-140.72;100.00;52798.72;5095310;28;19935;-72
2023/05/10 11:51:39;;;;;;;;;;;;;;;-140.72;100.00;52768.28;5096476;27;20386;-71
2023/05/10 11:54:09;;;;;;;;;;;;;;;-140.72;100.00;52788.59;5096094;28;19924;-71
2023/05/10 11:56:34;;;;;;;;;;;;;;;-140.72;100.00;52790.63;5094634;28;19972;-72
2023/05/10 11:59:01;;;;;;;;;;;;;;;-140.72;100.00;52790.63;5098161;28;20518;-73
2023/05/10 12:01:27;;;;;;;;;;;;;;;-140.72;100.00;52788.59;5090606;28;19924;-71
2023/05/10 12:03:53;;;;;;;;;;;;;;;-140.72;100.00;52808.88;5083698;28;20348;-71
2023/05/10 12:06:19;;;;;;;;;;;;;;;-140.72;100.00;52800.75;5092506;28;19931;-71
2023/05/10 12:08:46;;;;;;;;;;;;;;;-140.72;100.00;52798.72;5094268;27;19920;-72
2023/05/10 12:11:12;;;;;;;;;;;;;;;-140.72;100.00;52800.75;5097121;27;19919;-72
2023/05/10 12:13:38;;;;;;;;;;;;;;;-140.72;100.00;52853.53;5090905;28;19932;-72
2023/05/10 12:16:12;;;;;;;;;;;;;;;-140.72;100.00;52849.47;5092311;28;19924;-72
2023/05/10 12:18:39;;;;;;;;;;;;;;;-140.72;100.00;52845.41;5088955;28;20428;-72